Time;durP1;ratioP1;P1;durP2;ratioP2;P2;SDS_P1;SDS_P2;PMS_P1;PMS_P2;Temp;Humidity;BMP_temperature;BMP_pressure;BME280_temperature;BME280_humidity;BME280_pressure;Samples;Min_cycle;Max_cycle;Signal;HPM_P1;HPM_P2
2022/01/25 00:28:41;;;;;;;;;;;9.50;52.90;;;;;;5082921;28;20196;-71
2022/01/25 00:31:18;;;;;;;;;;;9.50;52.90;;;;;;5082636;28;19916;-69
2022/01/25 00:33:44;;;;;;;;;;;9.50;53.00;;;;;;5082669;28;19946;-69
2022/01/25 00:36:11;;;;;;;;;;;9.50;52.90;;;;;;5082525;28;20204;-70
2022/01/25 00:38:36;;;;;;;;;;;9.50;52.80;;;;;;5082486;28;20113;-69
2022/01/25 00:41:02;;;;;;;;;;;9.50;52.80;;;;;;5082408;28;19980;-69
2022/01/25 00:43:28;;;;;;;;;;;9.60;52.70;;;;;;5082399;28;19919;-69
2022/01/25 00:45:57;;;;;;;;;;;9.60;52.70;;;;;;5082597;28;19942;-70
2022/01/25 00:51:23;;;;;;;;;;;9.50;52.90;;;;;;5082123;28;19970;-68
2022/01/25 00:53:56;;;;;;;;;;;9.50;52.90;;;;;;5082276;28;19939;-69
2022/01/25 00:56:22;;;;;;;;;;;9.50;53.00;;;;;;5082128;28;19928;-71
2022/01/25 00:58:47;;;;;;;;;;;9.40;53.00;;;;;;5082107;28;19920;-71
2022/01/25 01:01:13;;;;;;;;;;;9.40;53.00;;;;;;5082077;28;19971;-71
2022/01/25 01:03:38;;;;;;;;;;;9.40;53.10;;;;;;5082054;28;19904;-70
2022/01/25 01:06:06;;;;;;;;;;;9.40;53.70;;;;;;5082016;28;19912;-71
2022/01/25 01:08:32;;;;;;;;;;;9.50;53.00;;;;;;5081892;28;19927;-70
2022/01/25 01:10:59;;;;;;;;;;;9.50;52.90;;;;;;5081870;28;19958;-70
2022/01/25 01:16:29;;;;;;;;;;;9.50;52.80;;;;;;5081696;28;19909;-70
2022/01/25 01:29:51;;;;;;;;;;;9.40;53.00;;;;;;5081482;28;19951;-70
2022/01/25 01:38:06;;;;;;;;;;;9.40;53.20;;;;;;5081397;28;19958;-69
2022/01/25 01:45:46;;;;;;;;;;;9.40;53.00;;;;;;5081521;28;20431;-69
2022/01/25 01:48:26;;;;;;;;;;;9.40;53.10;;;;;;5079906;28;19973;-70
2022/01/25 01:50:52;;;;;;;;;;;9.40;53.00;;;;;;5080968;28;19913;-70
2022/01/25 01:53:17;;;;;;;;;;;9.40;53.00;;;;;;5081115;28;19920;-71
2022/01/25 01:55:43;;;;;;;;;;;9.30;52.90;;;;;;5081066;28;19998;-70
2022/01/25 01:58:09;;;;;;;;;;;9.40;53.10;;;;;;5081028;28;19979;-71
2022/01/25 02:00:36;;;;;;;;;;;9.40;53.10;;;;;;5080960;28;19913;-70
2022/01/25 02:03:03;;;;;;;;;;;9.30;53.10;;;;;;5080924;28;19919;-70
2022/01/25 02:05:28;;;;;;;;;;;9.30;53.20;;;;;;5080935;28;19905;-70
2022/01/25 02:07:54;;;;;;;;;;;9.30;53.20;;;;;;5080814;28;20250;-70
2022/01/25 02:10:20;;;;;;;;;;;9.30;53.20;;;;;;5080773;28;19916;-71
2022/01/25 02:12:48;;;;;;;;;;;9.30;53.20;;;;;;5080541;28;19979;-70
2022/01/25 02:15:15;;;;;;;;;;;9.30;53.10;;;;;;5080824;28;19936;-69
2022/01/25 02:17:59;;;;;;;;;;;9.30;53.00;;;;;;5080591;28;19913;-70
2022/01/25 02:23:22;;;;;;;;;;;9.30;53.00;;;;;;5080634;28;19919;-71
2022/01/25 02:25:49;;;;;;;;;;;9.30;53.10;;;;;;5079482;28;19966;-69
2022/01/25 02:28:15;;;;;;;;;;;9.30;53.10;;;;;;5080639;28;20192;-69
2022/01/25 02:30:41;;;;;;;;;;;9.30;53.10;;;;;;5080332;28;19971;-70
2022/01/25 02:33:06;;;;;;;;;;;9.30;53.10;;;;;;5080492;28;19919;-70
2022/01/25 02:35:32;;;;;;;;;;;9.30;53.20;;;;;;5079670;28;19912;-70
2022/01/25 02:37:58;;;;;;;;;;;9.30;53.30;;;;;;5080393;28;19944;-71
2022/01/25 02:40:24;;;;;;;;;;;9.30;53.30;;;;;;5080310;28;19905;-70
2022/01/25 02:42:51;;;;;;;;;;;9.30;53.40;;;;;;5080339;28;19983;-70
2022/01/25 02:45:17;;;;;;;;;;;9.30;53.40;;;;;;5080279;28;19975;-70
2022/01/25 02:50:27;;;;;;;;;;;9.30;53.30;;;;;;5080304;28;19950;-70
2022/01/25 02:52:53;;;;;;;;;;;9.30;53.20;;;;;;5080087;28;19916;-70
2022/01/25 02:55:18;;;;;;;;;;;9.30;53.10;;;;;;5080188;28;19905;-70
2022/01/25 02:57:47;;;;;;;;;;;9.30;53.10;;;;;;5080156;28;19920;-69
2022/01/25 03:00:13;;;;;;;;;;;9.30;53.10;;;;;;5080045;28;19911;-69
2022/01/25 03:02:39;;;;;;;;;;;9.30;53.20;;;;;;5078876;28;19904;-71
2022/01/25 03:05:05;;;;;;;;;;;9.30;53.30;;;;;;5080116;28;19979;-69
2022/01/25 03:07:31;;;;;;;;;;;9.20;53.30;;;;;;5079924;28;20235;-70
2022/01/25 03:09:58;;;;;;;;;;;9.30;53.30;;;;;;5080102;28;20003;-71
2022/01/25 03:12:35;;;;;;;;;;;9.20;53.30;;;;;;5079661;28;19931;-69
2022/01/25 03:17:47;;;;;;;;;;;9.20;53.40;;;;;;5079851;28;19975;-70
2022/01/25 03:20:20;;;;;;;;;;;9.20;53.40;;;;;;5079821;28;19913;-70
2022/01/25 03:25:23;;;;;;;;;;;9.30;53.30;;;;;;5080152;28;19953;-70
2022/01/25 03:27:49;;;;;;;;;;;9.20;53.20;;;;;;5079850;28;19990;-69
2022/01/25 03:30:15;;;;;;;;;;;9.30;53.20;;;;;;5079851;28;19913;-69
2022/01/25 03:32:40;;;;;;;;;;;9.20;53.30;;;;;;5079620;28;20400;-70
2022/01/25 03:35:06;;;;;;;;;;;9.20;53.30;;;;;;5079804;28;20210;-69
2022/01/25 03:37:31;;;;;;;;;;;9.20;53.30;;;;;;5079753;28;19913;-69
2022/01/25 03:39:57;;;;;;;;;;;9.20;53.40;;;;;;5079812;28;19912;-70
2022/01/25 03:42:24;;;;;;;;;;;9.20;53.40;;;;;;5079622;28;19912;-71
2022/01/25 03:44:50;;;;;;;;;;;9.20;53.50;;;;;;5079653;28;20187;-69
2022/01/25 03:47:19;;;;;;;;;;;9.20;53.50;;;;;;5081923;28;19904;-69
2022/01/25 03:49:52;;;;;;;;;;;9.20;53.50;;;;;;5083605;28;19935;-70
2022/01/25 03:52:22;;;;;;;;;;;9.20;53.40;;;;;;5083581;28;20247;-69
2022/01/25 03:54:48;;;;;;;;;;;9.20;53.30;;;;;;5083564;28;19911;-69
2022/01/25 03:57:15;;;;;;;;;;;9.20;53.30;;;;;;5083474;28;19904;-70
2022/01/25 03:59:40;;;;;;;;;;;9.20;53.90;;;;;;5083340;28;20034;-70
2022/01/25 04:02:06;;;;;;;;;;;9.20;53.40;;;;;;5083411;28;19912;-70
2022/01/25 04:04:33;;;;;;;;;;;9.20;53.30;;;;;;5083209;28;19936;-70
2022/01/25 04:07:07;;;;;;;;;;;9.20;53.30;;;;;;5083158;28;19904;-70
2022/01/25 04:09:33;;;;;;;;;;;9.20;53.30;;;;;;5083172;28;20258;-70
2022/01/25 04:11:58;;;;;;;;;;;9.20;53.40;;;;;;5081768;28;19909;-70
2022/01/25 04:14:24;;;;;;;;;;;9.20;54.10;;;;;;5082940;28;20128;-70
2022/01/25 04:16:57;;;;;;;;;;;9.20;53.50;;;;;;5081785;28;19912;-70
2022/01/25 04:27:07;;;;;;;;;;;9.20;53.50;;;;;;5082938;28;19919;-69
2022/01/25 04:29:32;;;;;;;;;;;9.20;53.40;;;;;;5082697;28;19912;-70
2022/01/25 04:31:58;;;;;;;;;;;9.20;53.50;;;;;;5082664;28;20106;-70
2022/01/25 04:35:09;;;;;;;;;;;9.20;53.40;;;;;;5082660;28;19912;-69
2022/01/25 04:56:05;;;;;;;;;;;9.20;53.50;;;;;;5082289;28;20012;-70
2022/01/25 04:58:45;;;;;;;;;;;9.20;53.50;;;;;;5081441;28;19904;-70
2022/01/25 05:01:10;;;;;;;;;;;9.20;53.50;;;;;;5082200;28;19909;-70
2022/01/25 05:04:13;;;;;;;;;;;9.20;53.50;;;;;;5082141;28;20320;-69
2022/01/25 05:06:30;;;;;;;;;;;9.20;53.40;;;;;;5081767;28;19913;-70
2022/01/25 05:09:05;;;;;;;;;;;9.20;53.40;;;;;;5082046;28;19905;-69
2022/01/25 05:11:34;;;;;;;;;;;9.20;53.40;;;;;;5081824;28;19909;-70
2022/01/25 05:14:15;;;;;;;;;;;9.20;53.40;;;;;;5081980;28;19913;-72
2022/01/25 05:16:57;;;;;;;;;;;9.20;53.50;;;;;;5081933;28;20225;-70
2022/01/25 05:22:20;;;;;;;;;;;9.10;53.50;;;;;;5070324;28;19905;-70
2022/01/25 05:24:47;;;;;;;;;;;9.10;53.50;;;;;;5081723;28;19916;-70
2022/01/25 05:27:13;;;;;;;;;;;9.10;53.50;;;;;;5081527;28;19913;-70
2022/01/25 05:29:39;;;;;;;;;;;9.10;53.50;;;;;;5081578;28;19905;-70
2022/01/25 05:32:05;;;;;;;;;;;9.20;53.50;;;;;;5081500;28;19939;-70
2022/01/25 05:34:31;;;;;;;;;;;9.10;53.40;;;;;;5081464;28;20387;-70
2022/01/25 05:36:57;;;;;;;;;;;9.10;53.50;;;;;;5081507;28;19912;-70
2022/01/25 05:39:33;;;;;;;;;;;9.10;53.50;;;;;;5081291;28;20222;-69
2022/01/25 05:42:18;;;;;;;;;;;9.10;53.50;;;;;;5081377;28;19992;-70
2022/01/25 05:47:24;;;;;;;;;;;9.20;53.50;;;;;;5081526;28;19905;-70
2022/01/25 05:49:50;;;;;;;;;;;9.20;53.50;;;;;;5081209;28;19929;-71
2022/01/25 05:52:15;;;;;;;;;;;9.10;53.50;;;;;;5081048;28;20282;-69
2022/01/25 05:54:41;;;;;;;;;;;9.10;53.50;;;;;;5081077;28;19920;-70
2022/01/25 05:57:06;;;;;;;;;;;9.10;53.60;;;;;;5081006;28;19912;-69
2022/01/25 05:59:32;;;;;;;;;;;9.10;53.70;;;;;;5080898;28;20200;-70
2022/01/25 06:01:58;;;;;;;;;;;9.10;53.60;;;;;;5079705;28;19919;-69
2022/01/25 06:04:24;;;;;;;;;;;9.10;53.50;;;;;;5080874;28;19905;-69
2022/01/25 06:06:50;;;;;;;;;;;9.10;53.50;;;;;;5079459;28;20205;-70
2022/01/25 06:09:16;;;;;;;;;;;9.10;53.60;;;;;;5079411;28;19912;-69
2022/01/25 06:11:42;;;;;;;;;;;9.10;53.50;;;;;;5080526;28;19938;-70
2022/01/25 06:14:08;;;;;;;;;;;9.10;53.50;;;;;;5080584;28;20229;-70
2022/01/25 06:16:34;;;;;;;;;;;9.10;53.60;;;;;;5080690;28;19904;-69
2022/01/25 06:19:00;;;;;;;;;;;9.10;53.60;;;;;;5079527;28;19912;-69
2022/01/25 06:21:26;;;;;;;;;;;9.10;53.60;;;;;;5080553;28;20007;-70
2022/01/25 06:23:52;;;;;;;;;;;9.10;53.60;;;;;;5079105;28;19912;-69
2022/01/25 06:26:17;;;;;;;;;;;9.10;53.60;;;;;;5080502;28;20270;-69
2022/01/25 06:28:43;;;;;;;;;;;9.10;53.60;;;;;;5080398;28;19958;-70
2022/01/25 06:31:09;;;;;;;;;;;9.10;53.70;;;;;;5080277;28;19909;-69
2022/01/25 06:33:35;;;;;;;;;;;9.10;53.60;;;;;;5080332;28;19919;-70
2022/01/25 06:36:01;;;;;;;;;;;9.10;53.60;;;;;;5080265;28;19904;-69
2022/01/25 06:38:27;;;;;;;;;;;9.10;53.70;;;;;;5080261;28;20121;-70
2022/01/25 06:40:53;;;;;;;;;;;9.10;53.60;;;;;;5080228;28;20114;-69
2022/01/25 06:43:19;;;;;;;;;;;9.10;53.50;;;;;;5080201;28;19936;-69
2022/01/25 06:45:51;;;;;;;;;;;9.10;53.50;;;;;;5078812;28;19983;-70
2022/01/25 06:48:17;;;;;;;;;;;9.10;53.60;;;;;;5080197;28;19916;-70
2022/01/25 06:50:42;;;;;;;;;;;9.10;53.50;;;;;;5080036;28;19986;-69
2022/01/25 06:53:08;;;;;;;;;;;9.10;53.50;;;;;;5078913;28;19912;-69
2022/01/25 06:55:33;;;;;;;;;;;9.10;53.50;;;;;;5079990;28;20193;-69
2022/01/25 06:57:59;;;;;;;;;;;9.10;53.50;;;;;;5079977;28;19912;-69
2022/01/25 07:00:24;;;;;;;;;;;9.10;53.60;;;;;;5079999;28;19935;-70
2022/01/25 07:02:50;;;;;;;;;;;9.10;53.60;;;;;;5079940;28;19908;-70
2022/01/25 07:05:16;;;;;;;;;;;9.10;53.60;;;;;;5079870;28;19928;-69
2022/01/25 07:07:42;;;;;;;;;;;9.10;53.60;;;;;;5079878;28;20140;-69
2022/01/25 07:10:09;;;;;;;;;;;9.10;53.50;;;;;;5079956;28;20310;-69
2022/01/25 07:12:34;;;;;;;;;;;9.10;53.50;;;;;;5079742;28;20015;-69
2022/01/25 07:15:00;;;;;;;;;;;9.10;53.50;;;;;;5079631;28;20267;-69
2022/01/25 07:17:26;;;;;;;;;;;9.10;53.50;;;;;;5079737;28;19912;-70
2022/01/25 07:19:51;;;;;;;;;;;9.10;53.50;;;;;;5079765;28;19913;-70
2022/01/25 07:22:17;;;;;;;;;;;9.10;53.60;;;;;;5084335;28;19913;-70
2022/01/25 07:24:43;;;;;;;;;;;9.10;54.10;;;;;;5086379;28;19913;-70
2022/01/25 07:27:09;;;;;;;;;;;9.20;53.50;;;;;;5086423;28;19911;-70
2022/01/25 07:29:35;;;;;;;;;;;9.10;53.50;;;;;;5086451;28;19939;-69
2022/01/25 07:32:00;;;;;;;;;;;9.10;53.50;;;;;;5084998;28;19915;-69
2022/01/25 07:34:26;;;;;;;;;;;9.10;53.60;;;;;;5086344;28;19912;-69
2022/01/25 07:36:52;;;;;;;;;;;9.10;53.60;;;;;;5086233;28;19948;-69
2022/01/25 07:39:18;;;;;;;;;;;9.10;53.50;;;;;;5086238;28;19926;-69
2022/01/25 07:41:45;;;;;;;;;;;9.10;53.50;;;;;;5086231;28;20127;-69
2022/01/25 07:44:10;;;;;;;;;;;9.20;53.50;;;;;;5084927;28;19905;-69
2022/01/25 07:46:36;;;;;;;;;;;9.20;53.40;;;;;;5086248;28;20445;-69
2022/01/25 07:49:03;;;;;;;;;;;9.20;53.40;;;;;;5086038;28;20223;-69
2022/01/25 07:51:29;;;;;;;;;;;9.20;53.50;;;;;;5086622;28;19975;-69
2022/01/25 07:53:55;;;;;;;;;;;9.20;53.50;;;;;;5086157;28;19913;-69
2022/01/25 07:56:21;;;;;;;;;;;9.20;53.50;;;;;;5086050;28;20473;-70
2022/01/25 07:58:47;;;;;;;;;;;9.10;53.40;;;;;;5086240;28;20213;-69
2022/01/25 08:01:13;;;;;;;;;;;9.20;53.50;;;;;;5085990;28;19912;-69
2022/01/25 08:03:39;;;;;;;;;;;9.20;53.40;;;;;;5086050;28;19904;-70
2022/01/25 08:06:05;;;;;;;;;;;9.20;53.30;;;;;;5085963;28;19970;-69
2022/01/25 08:08:31;;;;;;;;;;;9.20;53.40;;;;;;5086186;28;19928;-69
2022/01/25 08:10:56;;;;;;;;;;;9.20;53.40;;;;;;5085936;28;20159;-70
2022/01/25 08:13:22;;;;;;;;;;;9.20;53.30;;;;;;5085862;28;19912;-70
2022/01/25 08:15:48;;;;;;;;;;;9.30;53.30;;;;;;5085833;28;19924;-70
2022/01/25 08:18:14;;;;;;;;;;;9.30;53.30;;;;;;5085873;28;19904;-69
2022/01/25 08:20:41;;;;;;;;;;;9.20;53.30;;;;;;5085343;28;20208;-71
2022/01/25 08:23:07;;;;;;;;;;;9.30;53.30;;;;;;5085869;28;19913;-69
2022/01/25 08:25:34;;;;;;;;;;;9.30;53.30;;;;;;5085823;28;19919;-70
2022/01/25 08:28:00;;;;;;;;;;;9.30;53.20;;;;;;5085755;28;20212;-69
2022/01/25 08:30:25;;;;;;;;;;;9.30;53.20;;;;;;5085737;28;19947;-69
2022/01/25 08:32:51;;;;;;;;;;;9.30;53.20;;;;;;5082074;28;19916;-70
2022/01/25 08:35:17;;;;;;;;;;;9.30;53.20;;;;;;5082447;28;19912;-70
2022/01/25 08:37:43;;;;;;;;;;;9.30;53.20;;;;;;5082473;28;20204;-70
2022/01/25 08:40:09;;;;;;;;;;;9.30;53.20;;;;;;5082424;28;19905;-69
2022/01/25 08:42:35;;;;;;;;;;;9.30;53.90;;;;;;5082403;28;19956;-69
2022/01/25 08:45:01;;;;;;;;;;;9.30;53.30;;;;;;5082386;28;19912;-70
2022/01/25 08:47:27;;;;;;;;;;;9.30;53.20;;;;;;5082334;28;19919;-70
2022/01/25 08:49:52;;;;;;;;;;;9.30;53.20;;;;;;5082299;28;20003;-69
2022/01/25 08:52:18;;;;;;;;;;;9.30;53.20;;;;;;5082197;28;19924;-69
2022/01/25 08:54:43;;;;;;;;;;;9.30;53.20;;;;;;5080923;28;19905;-69
2022/01/25 08:57:09;;;;;;;;;;;9.30;53.20;;;;;;5082424;28;19913;-69
2022/01/25 08:59:35;;;;;;;;;;;9.30;53.20;;;;;;5082100;28;19912;-70
2022/01/25 09:02:01;;;;;;;;;;;9.30;53.10;;;;;;5082037;28;20003;-69
2022/01/25 09:04:26;;;;;;;;;;;9.30;53.10;;;;;;5082063;28;19955;-69
2022/01/25 09:06:52;;;;;;;;;;;9.40;53.10;;;;;;5081901;28;19919;-69
2022/01/25 09:09:18;;;;;;;;;;;9.30;53.00;;;;;;5081903;28;19920;-69
2022/01/25 09:11:43;;;;;;;;;;;9.30;53.10;;;;;;5082068;28;19909;-69
2022/01/25 09:14:09;;;;;;;;;;;9.30;53.20;;;;;;5081689;28;19920;-70
2022/01/25 09:16:35;;;;;;;;;;;9.30;53.20;;;;;;5081774;28;19916;-69
2022/01/25 09:19:01;;;;;;;;;;;9.30;53.20;;;;;;5081710;28;20163;-69
2022/01/25 09:21:27;;;;;;;;;;;9.30;53.20;;;;;;5081731;28;19944;-69
2022/01/25 09:23:53;;;;;;;;;;;9.30;53.10;;;;;;5081574;28;20266;-69
2022/01/25 09:26:20;;;;;;;;;;;9.40;53.10;;;;;;5081630;28;20335;-70
2022/01/25 09:28:45;;;;;;;;;;;9.40;53.10;;;;;;5081520;28;19932;-70
2022/01/25 09:31:11;;;;;;;;;;;9.40;53.00;;;;;;5081410;28;19957;-69
2022/01/25 09:33:37;;;;;;;;;;;9.40;53.00;;;;;;5081529;28;19912;-70
2022/01/25 09:36:02;;;;;;;;;;;9.40;53.00;;;;;;5081338;28;19920;-69
2022/01/25 09:38:28;;;;;;;;;;;9.40;53.00;;;;;;5081356;28;19920;-70
2022/01/25 09:40:54;;;;;;;;;;;9.40;52.90;;;;;;5081276;28;19939;-70
2022/01/25 09:43:21;;;;;;;;;;;9.40;52.90;;;;;;5081234;28;20120;-69
2022/01/25 09:45:46;;;;;;;;;;;9.50;52.80;;;;;;5080915;28;19919;-70
2022/01/25 09:48:13;;;;;;;;;;;9.50;53.30;;;;;;5081114;28;20446;-70
2022/01/25 09:50:38;;;;;;;;;;;9.60;52.60;;;;;;5081065;28;19991;-69
2022/01/25 09:53:05;;;;;;;;;;;9.60;52.50;;;;;;5080942;28;19917;-70
2022/01/25 09:55:32;;;;;;;;;;;9.60;52.50;;;;;;5080931;28;19904;-69
2022/01/25 09:57:58;;;;;;;;;;;9.60;52.50;;;;;;5080970;28;19912;-69
2022/01/25 10:00:26;;;;;;;;;;;9.50;52.60;;;;;;5080895;28;19905;-70
2022/01/25 10:03:10;;;;;;;;;;;9.60;52.70;;;;;;5080683;28;19919;-70
2022/01/25 10:05:44;;;;;;;;;;;9.60;52.70;;;;;;5080819;28;19942;-69
2022/01/25 10:08:12;;;;;;;;;;;9.60;52.70;;;;;;5080720;28;20120;-68
2022/01/25 10:10:39;;;;;;;;;;;9.60;52.80;;;;;;5080691;28;19975;-69
2022/01/25 10:13:10;;;;;;;;;;;9.70;52.60;;;;;;5080632;28;20200;-69
2022/01/25 10:15:36;;;;;;;;;;;9.70;52.40;;;;;;5080264;28;20217;-70
2022/01/25 10:18:01;;;;;;;;;;;9.60;52.50;;;;;;5080485;28;19934;-69
2022/01/25 10:20:27;;;;;;;;;;;9.60;52.60;;;;;;5080573;28;20106;-70
2022/01/25 10:22:53;;;;;;;;;;;9.60;52.70;;;;;;5080377;28;19916;-69
2022/01/25 10:25:39;;;;;;;;;;;9.60;52.70;;;;;;5080430;28;19904;-70
2022/01/25 10:28:11;;;;;;;;;;;9.60;52.50;;;;;;5080306;28;19935;-69
2022/01/25 10:31:00;;;;;;;;;;;9.60;52.60;;;;;;5080434;28;19912;-70
2022/01/25 10:33:33;;;;;;;;;;;9.70;52.60;;;;;;5082431;28;19920;-69
2022/01/25 10:36:19;;;;;;;;;;;9.60;52.60;;;;;;5080199;28;20116;-70
2022/01/25 10:38:47;;;;;;;;;;;9.60;52.60;;;;;;5080188;28;19912;-71
2022/01/25 10:41:19;;;;;;;;;;;9.60;52.70;;;;;;5080070;28;19912;-70
2022/01/25 10:43:46;;;;;;;;;;;9.60;52.80;;;;;;5080126;28;19970;-70
2022/01/25 10:46:17;;;;;;;;;;;9.60;52.80;;;;;;5079996;28;19913;-70
2022/01/25 10:48:47;;;;;;;;;;;9.70;52.60;;;;;;5080030;28;19904;-70
2022/01/25 10:51:15;;;;;;;;;;;9.80;52.60;;;;;;5079871;28;19916;-70
2022/01/25 10:53:40;;;;;;;;;;;9.90;52.40;;;;;;5079911;28;19919;-70
2022/01/25 10:56:07;;;;;;;;;;;9.90;52.30;;;;;;5079278;28;20177;-70
2022/01/25 10:58:36;;;;;;;;;;;9.80;52.10;;;;;;5079809;28;19987;-70
2022/01/25 11:01:02;;;;;;;;;;;9.80;52.20;;;;;;5079784;28;20230;-70
2022/01/25 11:03:29;;;;;;;;;;;9.70;52.40;;;;;;5078556;28;19944;-70
2022/01/25 11:05:56;;;;;;;;;;;9.80;52.40;;;;;;5078556;28;19912;-70
2022/01/25 11:08:23;;;;;;;;;;;9.90;52.20;;;;;;5079710;28;19940;-70
2022/01/25 11:10:57;;;;;;;;;;;9.90;52.00;;;;;;5079763;28;19911;-70
2022/01/25 11:15:55;;;;;;;;;;;9.90;52.10;;;;;;5079627;28;19982;-69
2022/01/25 11:18:20;;;;;;;;;;;10.00;52.70;;;;;;5079678;28;19916;-70
2022/01/25 11:20:46;;;;;;;;;;;10.00;51.90;;;;;;5079677;28;19912;-70
2022/01/25 11:23:12;;;;;;;;;;;9.90;52.10;;;;;;5079692;28;19919;-70
2022/01/25 11:25:39;;;;;;;;;;;10.00;52.20;;;;;;5079740;28;20369;-70
2022/01/25 11:28:05;;;;;;;;;;;9.90;52.10;;;;;;5079615;28;20151;-70
2022/01/25 11:30:30;;;;;;;;;;;9.90;52.10;;;;;;5079555;28;19983;-70
2022/01/25 11:32:56;;;;;;;;;;;10.00;52.20;;;;;;5079532;28;19921;-70
2022/01/25 11:35:25;;;;;;;;;;;10.00;52.10;;;;;;5079507;28;19912;-69
2022/01/25 11:37:51;;;;;;;;;;;9.90;52.00;;;;;;5079440;28;19911;-70
2022/01/25 11:40:28;;;;;;;;;;;9.80;52.20;;;;;;5079615;28;19932;-70
2022/01/25 11:42:56;;;;;;;;;;;9.80;52.40;;;;;;5079664;28;19976;-69
2022/01/25 11:45:23;;;;;;;;;;;9.80;52.50;;;;;;5079419;28;19952;-70
2022/01/25 11:47:50;;;;;;;;;;;9.90;52.30;;;;;;5079476;28;19987;-69
2022/01/25 11:50:15;;;;;;;;;;;10.00;52.10;;;;;;5079403;28;19919;-70
2022/01/25 11:52:47;;;;;;;;;;;10.00;52.10;;;;;;5079243;28;19916;-69
2022/01/25 11:55:16;;;;;;;;;;;10.00;52.00;;;;;;5079252;28;20175;-70
2022/01/25 11:57:49;;;;;;;;;;;10.00;52.10;;;;;;5079262;28;19913;-70
2022/01/25 12:00:15;;;;;;;;;;;10.00;52.20;;;;;;5079320;28;19944;-69
2022/01/25 12:02:46;;;;;;;;;;;9.90;52.10;;;;;;5077977;28;19912;-69
2022/01/25 12:05:13;;;;;;;;;;;9.90;52.20;;;;;;5079273;28;19912;-69
2022/01/25 12:07:41;;;;;;;;;;;9.90;51.90;;;;;;5080379;28;19988;-69
2022/01/25 12:10:26;;;;;;;;;;;9.90;52.20;;;;;;5083064;28;19919;-69
2022/01/25 12:13:10;;;;;;;;;;;9.80;52.30;;;;;;5081500;28;19983;-70
2022/01/25 12:15:36;;;;;;;;;;;9.70;52.60;;;;;;5082822;28;20407;-69
2022/01/25 12:18:02;;;;;;;;;;;9.70;52.80;;;;;;5082789;28;19913;-70
2022/01/25 12:20:28;;;;;;;;;;;9.70;52.80;;;;;;5082887;28;19908;-69
2022/01/25 12:23:10;;;;;;;;;;;9.80;52.70;;;;;;5081503;28;20105;-68
2022/01/25 12:25:52;;;;;;;;;;;9.80;52.50;;;;;;5082681;28;20212;-70
2022/01/25 12:28:27;;;;;;;;;;;9.90;52.40;;;;;;5081515;28;20140;-69
2022/01/25 12:30:53;;;;;;;;;;;9.90;52.30;;;;;;5081236;28;19982;-70
2022/01/25 12:33:20;;;;;;;;;;;9.90;52.30;;;;;;5082542;28;19922;-71
2022/01/25 12:35:52;;;;;;;;;;;9.90;52.50;;;;;;5082533;28;19920;-70
2022/01/25 12:38:20;;;;;;;;;;;9.90;53.00;;;;;;5082585;28;20238;-70
2022/01/25 12:41:01;;;;;;;;;;;9.90;52.10;;;;;;5082492;28;20338;-70
2022/01/25 12:43:29;;;;;;;;;;;9.90;52.30;;;;;;5082387;28;19912;-70
2022/01/25 12:45:59;;;;;;;;;;;9.80;52.30;;;;;;5082353;28;19947;-70
2022/01/25 12:48:28;;;;;;;;;;;9.80;52.40;;;;;;5082345;28;20272;-70
2022/01/25 12:50:55;;;;;;;;;;;9.80;52.50;;;;;;5082227;28;19953;-70
2022/01/25 12:53:22;;;;;;;;;;;9.80;52.40;;;;;;5082182;28;19916;-70
2022/01/25 12:55:49;;;;;;;;;;;9.80;52.60;;;;;;5082257;28;19904;-70
2022/01/25 12:58:15;;;;;;;;;;;9.80;52.70;;;;;;5082418;28;19920;-70
2022/01/25 13:00:43;;;;;;;;;;;9.90;52.50;;;;;;5082078;28;20026;-70
2022/01/25 13:03:29;;;;;;;;;;;9.90;52.40;;;;;;5080833;28;19940;-70
2022/01/25 13:05:54;;;;;;;;;;;9.90;52.40;;;;;;5082037;28;19919;-69
2022/01/25 13:08:26;;;;;;;;;;;9.90;52.40;;;;;;5081980;28;19916;-69
2022/01/25 13:10:54;;;;;;;;;;;10.00;52.40;;;;;;5081858;28;19920;-70
2022/01/25 13:13:43;;;;;;;;;;;9.90;52.20;;;;;;5081962;28;19920;-69
2022/01/25 13:16:09;;;;;;;;;;;9.80;52.50;;;;;;5081704;28;19991;-69
2022/01/25 13:18:38;;;;;;;;;;;9.70;52.60;;;;;;5081477;28;19912;-70
2022/01/25 13:21:08;;;;;;;;;;;9.70;52.60;;;;;;5081349;28;19912;-69
2022/01/25 13:23:34;;;;;;;;;;;9.80;52.70;;;;;;5080392;28;20208;-69
2022/01/25 13:26:12;;;;;;;;;;;9.90;52.60;;;;;;5081584;28;20173;-68
2022/01/25 13:28:53;;;;;;;;;;;9.90;52.30;;;;;;5081693;28;20223;-69
2022/01/25 13:31:20;;;;;;;;;;;9.90;52.30;;;;;;5081520;28;19912;-69
2022/01/25 13:33:46;;;;;;;;;;;9.90;52.20;;;;;;5081138;28;19943;-69
2022/01/25 13:36:20;;;;;;;;;;;9.90;52.20;;;;;;5081425;28;20204;-70
2022/01/25 13:38:48;;;;;;;;;;;9.90;52.20;;;;;;5081339;28;19942;-69
2022/01/25 13:46:08;;;;;;;;;;;9.90;52.40;;;;;;5081506;28;19912;-69
2022/01/25 13:48:35;;;;;;;;;;;9.90;52.30;;;;;;5081129;28;20140;-69
2022/01/25 13:51:03;;;;;;;;;;;9.80;52.50;;;;;;5081113;28;20200;-69
2022/01/25 13:53:28;;;;;;;;;;;9.70;52.70;;;;;;5081612;28;19912;-71
2022/01/25 13:55:55;;;;;;;;;;;9.70;52.80;;;;;;5081128;28;19913;-70
2022/01/25 13:58:28;;;;;;;;;;;9.60;52.90;;;;;;5079751;28;19925;-68
2022/01/25 14:00:55;;;;;;;;;;;9.70;52.90;;;;;;5079488;28;19999;-70
2022/01/25 14:03:25;;;;;;;;;;;9.70;52.90;;;;;;5080913;28;20226;-70
2022/01/25 14:05:50;;;;;;;;;;;9.70;52.90;;;;;;5080790;28;19905;-70
2022/01/25 14:08:16;;;;;;;;;;;9.80;52.70;;;;;;5080821;28;20276;-69
2022/01/25 14:10:46;;;;;;;;;;;9.90;52.60;;;;;;5080683;28;19950;-70
2022/01/25 14:22:11;;;;;;;;;;;9.70;52.60;;;;;;5080465;28;19920;-70
2022/01/25 14:24:17;;;;;;;;;;;9.60;52.80;;;;;;5080152;28;19935;-68
2022/01/25 14:26:44;;;;;;;;;;;9.60;53.00;;;;;;5080326;28;20244;-69
2022/01/25 14:29:14;;;;;;;;;;;9.60;53.10;;;;;;5080378;28;19913;-70
2022/01/25 14:31:42;;;;;;;;;;;9.50;53.00;;;;;;5079300;28;19916;-69
2022/01/25 14:34:11;;;;;;;;;;;9.50;53.10;;;;;;5080395;28;19954;-70
2022/01/25 14:36:39;;;;;;;;;;;9.50;53.10;;;;;;5080272;28;19918;-69
2022/01/25 14:39:05;;;;;;;;;;;9.60;53.10;;;;;;5080234;28;20078;-70
2022/01/25 14:41:32;;;;;;;;;;;9.60;53.00;;;;;;5080096;28;19944;-70
2022/01/25 14:44:06;;;;;;;;;;;9.60;52.90;;;;;;5078849;28;19912;-69
2022/01/25 14:46:36;;;;;;;;;;;9.70;53.10;;;;;;5080038;28;19913;-70
2022/01/25 14:49:03;;;;;;;;;;;9.80;52.60;;;;;;5080047;28;19920;-69
2022/01/25 14:51:33;;;;;;;;;;;9.70;52.60;;;;;;5079977;28;19923;-70
2022/01/25 14:53:59;;;;;;;;;;;9.70;52.60;;;;;;5080009;28;19946;-69
2022/01/25 14:56:28;;;;;;;;;;;9.60;52.80;;;;;;5080026;28;19916;-70
2022/01/25 15:01:20;;;;;;;;;;;9.50;53.10;;;;;;5080170;28;19918;-69
2022/01/25 15:03:46;;;;;;;;;;;9.50;53.20;;;;;;5079909;28;19912;-70
2022/01/25 15:06:16;;;;;;;;;;;9.50;53.30;;;;;;5079780;28;20109;-69
2022/01/25 15:08:49;;;;;;;;;;;9.50;53.30;;;;;;5079807;28;19912;-69
2022/01/25 15:11:15;;;;;;;;;;;9.50;53.40;;;;;;5079733;28;19948;-70
2022/01/25 15:13:41;;;;;;;;;;;9.50;53.30;;;;;;5079698;28;19940;-69
2022/01/25 15:16:06;;;;;;;;;;;9.50;53.30;;;;;;5079710;28;19964;-70
2022/01/25 15:18:38;;;;;;;;;;;9.50;53.30;;;;;;5078464;28;20142;-70
2022/01/25 15:21:05;;;;;;;;;;;9.50;53.40;;;;;;5079690;28;20014;-70
2022/01/25 15:23:33;;;;;;;;;;;9.50;53.20;;;;;;5079756;28;19946;-70
2022/01/25 15:26:01;;;;;;;;;;;9.50;53.80;;;;;;5079650;28;19912;-70
2022/01/25 15:28:37;;;;;;;;;;;9.50;53.10;;;;;;5079690;28;19912;-69
2022/01/25 15:31:04;;;;;;;;;;;9.50;53.20;;;;;;5079543;28;20064;-71
2022/01/25 15:33:30;;;;;;;;;;;9.50;53.30;;;;;;5079674;28;19940;-70
2022/01/25 15:35:56;;;;;;;;;;;9.40;53.30;;;;;;5079610;28;19966;-70
2022/01/25 15:38:21;;;;;;;;;;;9.40;53.40;;;;;;5078222;28;19961;-70
2022/01/25 15:40:47;;;;;;;;;;;9.40;53.40;;;;;;5079505;28;19919;-70
2022/01/25 15:43:22;;;;;;;;;;;9.40;53.40;;;;;;5081605;28;19920;-70
2022/01/25 15:46:01;;;;;;;;;;;9.40;53.40;;;;;;5083632;28;19947;-69
2022/01/25 15:48:26;;;;;;;;;;;9.40;53.40;;;;;;5083556;28;19920;-71
2022/01/25 15:50:52;;;;;;;;;;;9.40;53.50;;;;;;5082034;28;19979;-70
2022/01/25 15:53:18;;;;;;;;;;;9.40;53.60;;;;;;5083295;28;19932;-70
2022/01/25 15:55:44;;;;;;;;;;;9.40;53.60;;;;;;5083283;28;20143;-70
2022/01/25 15:58:09;;;;;;;;;;;9.40;53.50;;;;;;5082079;28;20425;-70
2022/01/25 16:00:35;;;;;;;;;;;9.40;53.40;;;;;;5083231;28;19923;-70
2022/01/25 16:03:00;;;;;;;;;;;9.40;53.40;;;;;;5083164;28;19966;-70
2022/01/25 16:05:26;;;;;;;;;;;9.40;53.40;;;;;;5083207;28;19919;-70
2022/01/25 16:07:53;;;;;;;;;;;9.40;53.50;;;;;;5083022;28;19912;-70
2022/01/25 16:10:20;;;;;;;;;;;9.40;53.50;;;;;;5083009;28;19912;-70
2022/01/25 16:12:45;;;;;;;;;;;9.40;53.60;;;;;;5082843;28;19916;-69
2022/01/25 16:15:11;;;;;;;;;;;9.40;53.60;;;;;;5082722;28;19977;-69
2022/01/25 16:17:36;;;;;;;;;;;9.40;53.50;;;;;;5083005;28;19919;-70
2022/01/25 16:20:03;;;;;;;;;;;9.40;53.50;;;;;;5082855;28;19911;-70
2022/01/25 16:22:28;;;;;;;;;;;9.40;53.50;;;;;;5082827;28;19912;-69
2022/01/25 16:24:54;;;;;;;;;;;9.40;53.50;;;;;;5082808;28;19920;-69
2022/01/25 16:27:19;;;;;;;;;;;9.30;53.50;;;;;;5082788;28;20113;-69
2022/01/25 16:29:45;;;;;;;;;;;9.40;53.50;;;;;;5082695;28;20201;-69